sensor_id;sensor_type;location;lat;lon;timestamp;P1;durP1;ratioP1;P2;durP2;ratioP2
65581;SDS011;52231;40.090;18.348;2023-05-14T00:01:05;22.58;;;5.30;;
65581;SDS011;52231;40.090;18.348;2023-05-14T00:03:34;19.73;;;5.47;;
65581;SDS011;52231;40.090;18.348;2023-05-14T00:06:03;18.55;;;5.10;;
65581;SDS011;52231;40.090;18.348;2023-05-14T00:08:31;24.83;;;5.35;;
65581;SDS011;52231;40.090;18.348;2023-05-14T00:13:28;17.08;;;5.43;;
65581;SDS011;52231;40.090;18.348;2023-05-14T00:15:56;17.60;;;4.78;;
65581;SDS011;52231;40.090;18.348;2023-05-14T00:18:24;24.38;;;5.20;;
65581;SDS011;52231;40.090;18.348;2023-05-14T00:20:52;17.58;;;5.20;;
65581;SDS011;52231;40.090;18.348;2023-05-14T00:25:49;17.75;;;4.43;;
65581;SDS011;52231;40.090;18.348;2023-05-14T00:28:17;15.00;;;4.68;;
65581;SDS011;52231;40.090;18.348;2023-05-14T00:30:45;17.10;;;4.50;;
65581;SDS011;52231;40.090;18.348;2023-05-14T00:33:14;19.02;;;4.80;;
65581;SDS011;52231;40.090;18.348;2023-05-14T00:35:43;20.38;;;4.43;;
65581;SDS011;52231;40.090;18.348;2023-05-14T00:38:11;17.05;;;4.55;;
65581;SDS011;52231;40.090;18.348;2023-05-14T00:40:44;15.52;;;4.38;;
65581;SDS011;52231;40.090;18.348;2023-05-14T00:43:20;15.48;;;4.65;;
65581;SDS011;52231;40.090;18.348;2023-05-14T00:45:50;21.25;;;5.10;;
65581;SDS011;52231;40.090;18.348;2023-05-14T00:48:22;18.33;;;5.20;;
65581;SDS011;52231;40.090;18.348;2023-05-14T00:50:51;15.98;;;5.70;;
65581;SDS011;52231;40.090;18.348;2023-05-14T00:55:48;19.20;;;6.03;;
65581;SDS011;52231;40.090;18.348;2023-05-14T00:58:17;24.40;;;5.88;;
65581;SDS011;52231;40.090;18.348;2023-05-14T01:00:46;16.63;;;5.32;;
65581;SDS011;52231;40.090;18.348;2023-05-14T01:03:14;19.20;;;5.50;;
65581;SDS011;52231;40.090;18.348;2023-05-14T01:05:46;22.20;;;6.13;;
65581;SDS011;52231;40.090;18.348;2023-05-14T01:16:55;25.42;;;6.18;;
65581;SDS011;52231;40.090;18.348;2023-05-14T01:19:28;21.83;;;6.32;;
65581;SDS011;52231;40.090;18.348;2023-05-14T01:22:03;23.45;;;6.57;;
65581;SDS011;52231;40.090;18.348;2023-05-14T01:24:32;24.27;;;6.75;;
65581;SDS011;52231;40.090;18.348;2023-05-14T01:27:17;24.38;;;6.10;;
65581;SDS011;52231;40.090;18.348;2023-05-14T01:30:01;19.63;;;6.65;;
65581;SDS011;52231;40.090;18.348;2023-05-14T01:32:40;30.27;;;6.65;;
65581;SDS011;52231;40.090;18.348;2023-05-14T01:35:11;23.02;;;6.57;;
65581;SDS011;52231;40.090;18.348;2023-05-14T01:37:40;18.25;;;5.13;;
65581;SDS011;52231;40.090;18.348;2023-05-14T01:40:11;16.50;;;6.13;;
65581;SDS011;52231;40.090;18.348;2023-05-14T01:42:40;26.52;;;6.30;;
65581;SDS011;52231;40.090;18.348;2023-05-14T01:45:10;21.90;;;6.07;;
65581;SDS011;52231;40.090;18.348;2023-05-14T01:47:38;21.77;;;5.85;;
65581;SDS011;52231;40.090;18.348;2023-05-14T01:50:06;16.33;;;5.50;;
65581;SDS011;52231;40.090;18.348;2023-05-14T01:52:34;27.45;;;6.18;;
65581;SDS011;52231;40.090;18.348;2023-05-14T01:55:03;20.83;;;6.55;;
65581;SDS011;52231;40.090;18.348;2023-05-14T01:57:32;23.85;;;5.32;;
65581;SDS011;52231;40.090;18.348;2023-05-14T02:00:00;17.38;;;5.18;;
65581;SDS011;52231;40.090;18.348;2023-05-14T02:02:31;21.85;;;5.40;;
65581;SDS011;52231;40.090;18.348;2023-05-14T02:04:59;18.55;;;4.70;;
65581;SDS011;52231;40.090;18.348;2023-05-14T02:07:27;17.73;;;5.15;;
65581;SDS011;52231;40.090;18.348;2023-05-14T02:09:55;13.65;;;4.47;;
65581;SDS011;52231;40.090;18.348;2023-05-14T02:12:23;18.42;;;4.63;;
65581;SDS011;52231;40.090;18.348;2023-05-14T02:14:52;15.48;;;4.43;;
65581;SDS011;52231;40.090;18.348;2023-05-14T02:17:20;16.25;;;4.47;;
65581;SDS011;52231;40.090;18.348;2023-05-14T02:22:17;14.98;;;4.28;;
65581;SDS011;52231;40.090;18.348;2023-05-14T02:24:45;17.08;;;4.53;;
65581;SDS011;52231;40.090;18.348;2023-05-14T02:27:13;17.20;;;4.65;;
65581;SDS011;52231;40.090;18.348;2023-05-14T02:29:42;15.98;;;4.30;;
65581;SDS011;52231;40.090;18.348;2023-05-14T02:32:11;17.00;;;4.47;;
65581;SDS011;52231;40.090;18.348;2023-05-14T02:34:39;25.17;;;5.80;;
65581;SDS011;52231;40.090;18.348;2023-05-14T02:37:07;23.13;;;5.35;;
65581;SDS011;52231;40.090;18.348;2023-05-14T02:39:35;17.25;;;5.38;;
65581;SDS011;52231;40.090;18.348;2023-05-14T02:42:03;20.88;;;5.60;;
65581;SDS011;52231;40.090;18.348;2023-05-14T02:44:32;21.35;;;5.18;;
65581;SDS011;52231;40.090;18.348;2023-05-14T02:47:00;19.02;;;5.45;;
65581;SDS011;52231;40.090;18.348;2023-05-14T02:49:28;18.92;;;5.82;;
65581;SDS011;52231;40.090;18.348;2023-05-14T02:51:56;14.30;;;5.20;;
65581;SDS011;52231;40.090;18.348;2023-05-14T02:54:27;28.52;;;6.90;;
65581;SDS011;52231;40.090;18.348;2023-05-14T02:56:55;16.38;;;5.13;;
65581;SDS011;52231;40.090;18.348;2023-05-14T02:59:23;23.73;;;4.97;;
65581;SDS011;52231;40.090;18.348;2023-05-14T03:01:54;23.95;;;5.45;;
65581;SDS011;52231;40.090;18.348;2023-05-14T03:04:22;21.15;;;5.53;;
65581;SDS011;52231;40.090;18.348;2023-05-14T03:06:50;16.95;;;5.85;;
65581;SDS011;52231;40.090;18.348;2023-05-14T03:09:18;16.52;;;5.57;;
65581;SDS011;52231;40.090;18.348;2023-05-14T03:11:46;16.65;;;5.82;;
65581;SDS011;52231;40.090;18.348;2023-05-14T03:14:14;25.83;;;5.40;;
65581;SDS011;52231;40.090;18.348;2023-05-14T03:16:42;17.15;;;5.68;;
65581;SDS011;52231;40.090;18.348;2023-05-14T03:19:11;18.23;;;5.63;;
65581;SDS011;52231;40.090;18.348;2023-05-14T03:21:39;20.58;;;5.72;;
65581;SDS011;52231;40.090;18.348;2023-05-14T03:24:07;18.98;;;5.70;;
65581;SDS011;52231;40.090;18.348;2023-05-14T03:26:37;22.50;;;5.38;;
65581;SDS011;52231;40.090;18.348;2023-05-14T03:29:06;19.38;;;6.28;;
65581;SDS011;52231;40.090;18.348;2023-05-14T03:31:36;26.73;;;6.38;;
65581;SDS011;52231;40.090;18.348;2023-05-14T03:34:04;28.52;;;6.22;;
65581;SDS011;52231;40.090;18.348;2023-05-14T03:36:32;18.05;;;5.95;;
65581;SDS011;52231;40.090;18.348;2023-05-14T03:39:02;29.13;;;6.20;;
65581;SDS011;52231;40.090;18.348;2023-05-14T03:41:34;22.25;;;6.15;;
65581;SDS011;52231;40.090;18.348;2023-05-14T03:44:03;26.00;;;6.70;;
65581;SDS011;52231;40.090;18.348;2023-05-14T03:46:32;19.08;;;5.80;;
65581;SDS011;52231;40.090;18.348;2023-05-14T03:49:00;24.77;;;7.13;;
65581;SDS011;52231;40.090;18.348;2023-05-14T03:51:29;21.73;;;6.53;;
65581;SDS011;52231;40.090;18.348;2023-05-14T03:53:58;22.92;;;7.07;;
65581;SDS011;52231;40.090;18.348;2023-05-14T03:56:27;23.15;;;6.10;;
65581;SDS011;52231;40.090;18.348;2023-05-14T03:58:55;20.13;;;6.50;;
65581;SDS011;52231;40.090;18.348;2023-05-14T04:01:23;22.15;;;6.57;;
65581;SDS011;52231;40.090;18.348;2023-05-14T04:03:52;22.65;;;6.80;;
65581;SDS011;52231;40.090;18.348;2023-05-14T04:06:21;20.13;;;6.50;;
65581;SDS011;52231;40.090;18.348;2023-05-14T04:11:17;20.73;;;6.03;;
65581;SDS011;52231;40.090;18.348;2023-05-14T04:13:45;28.55;;;6.70;;
65581;SDS011;52231;40.090;18.348;2023-05-14T04:16:14;23.15;;;7.00;;
65581;SDS011;52231;40.090;18.348;2023-05-14T04:18:42;25.25;;;6.63;;
65581;SDS011;52231;40.090;18.348;2023-05-14T04:21:10;23.35;;;6.65;;
65581;SDS011;52231;40.090;18.348;2023-05-14T04:23:38;18.75;;;6.65;;
65581;SDS011;52231;40.090;18.348;2023-05-14T04:26:07;25.38;;;6.32;;
65581;SDS011;52231;40.090;18.348;2023-05-14T04:28:35;22.15;;;6.88;;
65581;SDS011;52231;40.090;18.348;2023-05-14T04:31:03;28.90;;;7.63;;
65581;SDS011;52231;40.090;18.348;2023-05-14T04:33:31;24.60;;;6.72;;
65581;SDS011;52231;40.090;18.348;2023-05-14T04:35:59;23.60;;;6.07;;
65581;SDS011;52231;40.090;18.348;2023-05-14T04:38:28;21.95;;;6.45;;
65581;SDS011;52231;40.090;18.348;2023-05-14T04:40:56;23.48;;;6.72;;
65581;SDS011;52231;40.090;18.348;2023-05-14T04:45:53;23.10;;;6.78;;
65581;SDS011;52231;40.090;18.348;2023-05-14T04:48:21;23.50;;;6.75;;
65581;SDS011;52231;40.090;18.348;2023-05-14T04:50:50;24.40;;;6.50;;
65581;SDS011;52231;40.090;18.348;2023-05-14T04:53:18;26.05;;;7.72;;
65581;SDS011;52231;40.090;18.348;2023-05-14T04:55:46;26.33;;;7.15;;
65581;SDS011;52231;40.090;18.348;2023-05-14T04:58:14;26.17;;;6.95;;
65581;SDS011;52231;40.090;18.348;2023-05-14T05:00:43;23.23;;;6.88;;
65581;SDS011;52231;40.090;18.348;2023-05-14T05:03:11;19.58;;;5.85;;
65581;SDS011;52231;40.090;18.348;2023-05-14T05:05:39;21.23;;;6.40;;
65581;SDS011;52231;40.090;18.348;2023-05-14T05:08:07;22.25;;;6.53;;
65581;SDS011;52231;40.090;18.348;2023-05-14T05:10:37;20.42;;;6.57;;
65581;SDS011;52231;40.090;18.348;2023-05-14T05:13:06;24.65;;;6.45;;
65581;SDS011;52231;40.090;18.348;2023-05-14T05:15:34;18.48;;;6.30;;
65581;SDS011;52231;40.090;18.348;2023-05-14T05:18:02;25.80;;;7.55;;
65581;SDS011;52231;40.090;18.348;2023-05-14T05:20:30;19.55;;;6.30;;
65581;SDS011;52231;40.090;18.348;2023-05-14T05:23:00;23.60;;;6.28;;
65581;SDS011;52231;40.090;18.348;2023-05-14T05:25:28;21.13;;;6.22;;
65581;SDS011;52231;40.090;18.348;2023-05-14T05:27:56;19.13;;;5.85;;
65581;SDS011;52231;40.090;18.348;2023-05-14T05:30:24;17.83;;;5.80;;
65581;SDS011;52231;40.090;18.348;2023-05-14T05:32:52;18.27;;;6.28;;
65581;SDS011;52231;40.090;18.348;2023-05-14T05:35:23;23.05;;;6.03;;
65581;SDS011;52231;40.090;18.348;2023-05-14T05:37:51;18.85;;;6.15;;
65581;SDS011;52231;40.090;18.348;2023-05-14T05:40:19;25.10;;;6.45;;
65581;SDS011;52231;40.090;18.348;2023-05-14T05:42:48;20.13;;;5.60;;
65581;SDS011;52231;40.090;18.348;2023-05-14T05:45:16;20.08;;;5.88;;
65581;SDS011;52231;40.090;18.348;2023-05-14T05:47:44;23.05;;;5.82;;
65581;SDS011;52231;40.090;18.348;2023-05-14T05:50:12;20.90;;;6.82;;
65581;SDS011;52231;40.090;18.348;2023-05-14T05:52:41;16.88;;;5.32;;
65581;SDS011;52231;40.090;18.348;2023-05-14T05:55:09;20.48;;;5.82;;
65581;SDS011;52231;40.090;18.348;2023-05-14T05:57:37;19.80;;;5.60;;
65581;SDS011;52231;40.090;18.348;2023-05-14T06:00:05;16.48;;;5.50;;
65581;SDS011;52231;40.090;18.348;2023-05-14T06:02:40;21.42;;;5.63;;
65581;SDS011;52231;40.090;18.348;2023-05-14T06:05:09;18.70;;;5.45;;
65581;SDS011;52231;40.090;18.348;2023-05-14T06:07:37;27.85;;;6.18;;
65581;SDS011;52231;40.090;18.348;2023-05-14T06:10:06;23.13;;;6.28;;
65581;SDS011;52231;40.090;18.348;2023-05-14T06:12:34;26.17;;;7.13;;
65581;SDS011;52231;40.090;18.348;2023-05-14T06:15:02;19.52;;;6.18;;
65581;SDS011;52231;40.090;18.348;2023-05-14T06:17:31;21.67;;;6.32;;
65581;SDS011;52231;40.090;18.348;2023-05-14T06:22:28;25.00;;;6.25;;
65581;SDS011;52231;40.090;18.348;2023-05-14T06:24:56;20.80;;;5.70;;
65581;SDS011;52231;40.090;18.348;2023-05-14T06:27:24;24.95;;;6.75;;
65581;SDS011;52231;40.090;18.348;2023-05-14T06:29:52;21.75;;;6.22;;
65581;SDS011;52231;40.090;18.348;2023-05-14T06:32:21;20.88;;;5.82;;
65581;SDS011;52231;40.090;18.348;2023-05-14T06:37:17;19.63;;;5.93;;
65581;SDS011;52231;40.090;18.348;2023-05-14T06:39:45;18.70;;;6.38;;
65581;SDS011;52231;40.090;18.348;2023-05-14T06:42:16;25.60;;;6.13;;
65581;SDS011;52231;40.090;18.348;2023-05-14T06:44:44;16.88;;;5.60;;
65581;SDS011;52231;40.090;18.348;2023-05-14T06:49:40;21.83;;;5.85;;
65581;SDS011;52231;40.090;18.348;2023-05-14T06:52:09;25.80;;;6.90;;
65581;SDS011;52231;40.090;18.348;2023-05-14T06:54:37;15.73;;;5.85;;
65581;SDS011;52231;40.090;18.348;2023-05-14T06:57:06;19.00;;;5.70;;
65581;SDS011;52231;40.090;18.348;2023-05-14T06:59:34;20.70;;;7.05;;
65581;SDS011;52231;40.090;18.348;2023-05-14T07:02:02;22.75;;;6.03;;
65581;SDS011;52231;40.090;18.348;2023-05-14T07:04:31;22.27;;;6.45;;
65581;SDS011;52231;40.090;18.348;2023-05-14T07:07:00;20.50;;;6.32;;
65581;SDS011;52231;40.090;18.348;2023-05-14T07:09:28;21.33;;;7.03;;
65581;SDS011;52231;40.090;18.348;2023-05-14T07:11:56;21.73;;;6.53;;
65581;SDS011;52231;40.090;18.348;2023-05-14T07:14:24;21.75;;;6.60;;
65581;SDS011;52231;40.090;18.348;2023-05-14T07:16:52;21.45;;;7.07;;
65581;SDS011;52231;40.090;18.348;2023-05-14T07:21:48;22.25;;;6.45;;
65581;SDS011;52231;40.090;18.348;2023-05-14T07:24:17;26.63;;;8.07;;
65581;SDS011;52231;40.090;18.348;2023-05-14T07:26:45;17.60;;;6.10;;
65581;SDS011;52231;40.090;18.348;2023-05-14T07:29:13;23.83;;;6.65;;
65581;SDS011;52231;40.090;18.348;2023-05-14T07:31:42;27.50;;;6.70;;
65581;SDS011;52231;40.090;18.348;2023-05-14T07:34:10;19.90;;;5.88;;
65581;SDS011;52231;40.090;18.348;2023-05-14T07:36:39;21.50;;;6.72;;
65581;SDS011;52231;40.090;18.348;2023-05-14T07:39:07;20.40;;;5.78;;
65581;SDS011;52231;40.090;18.348;2023-05-14T07:41:36;28.35;;;6.78;;
65581;SDS011;52231;40.090;18.348;2023-05-14T07:44:04;20.00;;;6.50;;
65581;SDS011;52231;40.090;18.348;2023-05-14T07:49:00;24.30;;;5.68;;
65581;SDS011;52231;40.090;18.348;2023-05-14T07:51:29;27.70;;;5.68;;
65581;SDS011;52231;40.090;18.348;2023-05-14T07:53:58;21.30;;;5.72;;
65581;SDS011;52231;40.090;18.348;2023-05-14T07:56:27;21.77;;;6.22;;
65581;SDS011;52231;40.090;18.348;2023-05-14T07:58:55;24.60;;;6.30;;
65581;SDS011;52231;40.090;18.348;2023-05-14T08:01:25;15.98;;;5.82;;
65581;SDS011;52231;40.090;18.348;2023-05-14T08:06:21;22.83;;;6.10;;
65581;SDS011;52231;40.090;18.348;2023-05-14T08:08:52;21.35;;;5.80;;
65581;SDS011;52231;40.090;18.348;2023-05-14T08:11:20;22.65;;;5.88;;
65581;SDS011;52231;40.090;18.348;2023-05-14T08:13:48;17.45;;;5.60;;
65581;SDS011;52231;40.090;18.348;2023-05-14T08:16:20;19.48;;;5.78;;
65581;SDS011;52231;40.090;18.348;2023-05-14T08:18:48;19.15;;;6.30;;
65581;SDS011;52231;40.090;18.348;2023-05-14T08:21:19;20.88;;;5.68;;
65581;SDS011;52231;40.090;18.348;2023-05-14T08:23:47;19.00;;;6.20;;
65581;SDS011;52231;40.090;18.348;2023-05-14T08:26:15;13.68;;;5.45;;
65581;SDS011;52231;40.090;18.348;2023-05-14T08:28:43;18.15;;;5.57;;
65581;SDS011;52231;40.090;18.348;2023-05-14T08:31:12;22.23;;;5.50;;
65581;SDS011;52231;40.090;18.348;2023-05-14T08:33:41;25.55;;;6.07;;
65581;SDS011;52231;40.090;18.348;2023-05-14T08:36:09;24.70;;;5.82;;
65581;SDS011;52231;40.090;18.348;2023-05-14T08:38:37;22.67;;;6.82;;
65581;SDS011;52231;40.090;18.348;2023-05-14T08:41:05;27.02;;;7.22;;
65581;SDS011;52231;40.090;18.348;2023-05-14T08:43:37;17.05;;;5.50;;
65581;SDS011;52231;40.090;18.348;2023-05-14T08:46:08;23.98;;;6.28;;
65581;SDS011;52231;40.090;18.348;2023-05-14T08:48:41;21.65;;;5.90;;
65581;SDS011;52231;40.090;18.348;2023-05-14T08:51:13;20.98;;;6.10;;
65581;SDS011;52231;40.090;18.348;2023-05-14T08:53:41;21.00;;;6.05;;
65581;SDS011;52231;40.090;18.348;2023-05-14T08:56:09;24.48;;;6.07;;
65581;SDS011;52231;40.090;18.348;2023-05-14T08:58:39;21.35;;;6.22;;
65581;SDS011;52231;40.090;18.348;2023-05-14T09:01:07;23.98;;;6.25;;
65581;SDS011;52231;40.090;18.348;2023-05-14T09:03:35;19.95;;;5.97;;
65581;SDS011;52231;40.090;18.348;2023-05-14T09:06:05;22.38;;;6.40;;
65581;SDS011;52231;40.090;18.348;2023-05-14T09:08:34;24.90;;;6.63;;
65581;SDS011;52231;40.090;18.348;2023-05-14T09:11:02;26.33;;;6.55;;
65581;SDS011;52231;40.090;18.348;2023-05-14T09:13:30;19.30;;;5.20;;
65581;SDS011;52231;40.090;18.348;2023-05-14T09:15:58;23.38;;;6.30;;
65581;SDS011;52231;40.090;18.348;2023-05-14T09:18:27;19.80;;;5.80;;
65581;SDS011;52231;40.090;18.348;2023-05-14T09:23:30;30.50;;;6.63;;
65581;SDS011;52231;40.090;18.348;2023-05-14T09:26:03;24.95;;;6.40;;
65581;SDS011;52231;40.090;18.348;2023-05-14T09:28:32;18.15;;;5.75;;
65581;SDS011;52231;40.090;18.348;2023-05-14T09:31:01;23.95;;;5.53;;
65581;SDS011;52231;40.090;18.348;2023-05-14T09:33:29;18.80;;;6.18;;
65581;SDS011;52231;40.090;18.348;2023-05-14T09:35:57;23.20;;;5.15;;
65581;SDS011;52231;40.090;18.348;2023-05-14T09:38:30;21.10;;;5.28;;
65581;SDS011;52231;40.090;18.348;2023-05-14T09:40:59;20.45;;;5.47;;
65581;SDS011;52231;40.090;18.348;2023-05-14T09:43:27;20.58;;;5.72;;
65581;SDS011;52231;40.090;18.348;2023-05-14T09:45:55;24.90;;;6.28;;
65581;SDS011;52231;40.090;18.348;2023-05-14T09:48:24;22.02;;;5.97;;
65581;SDS011;52231;40.090;18.348;2023-05-14T09:53:20;18.63;;;5.30;;
65581;SDS011;52231;40.090;18.348;2023-05-14T09:55:48;25.58;;;5.82;;
65581;SDS011;52231;40.090;18.348;2023-05-14T09:58:17;23.25;;;5.45;;
65581;SDS011;52231;40.090;18.348;2023-05-14T10:00:45;22.92;;;5.55;;
65581;SDS011;52231;40.090;18.348;2023-05-14T10:03:14;24.13;;;4.95;;
65581;SDS011;52231;40.090;18.348;2023-05-14T10:05:45;24.23;;;5.72;;
65581;SDS011;52231;40.090;18.348;2023-05-14T10:08:25;22.23;;;5.38;;
65581;SDS011;52231;40.090;18.348;2023-05-14T10:10:57;19.85;;;5.05;;
65581;SDS011;52231;40.090;18.348;2023-05-14T10:13:36;20.08;;;5.10;;
65581;SDS011;52231;40.090;18.348;2023-05-14T10:18:49;19.88;;;5.30;;
65581;SDS011;52231;40.090;18.348;2023-05-14T10:21:23;21.77;;;5.40;;
65581;SDS011;52231;40.090;18.348;2023-05-14T10:23:53;21.63;;;5.95;;
65581;SDS011;52231;40.090;18.348;2023-05-14T10:26:21;22.75;;;6.25;;
65581;SDS011;52231;40.090;18.348;2023-05-14T10:28:50;25.70;;;6.47;;
65581;SDS011;52231;40.090;18.348;2023-05-14T10:31:21;21.45;;;5.85;;
65581;SDS011;52231;40.090;18.348;2023-05-14T10:33:50;23.48;;;5.68;;
65581;SDS011;52231;40.090;18.348;2023-05-14T10:36:20;21.85;;;6.68;;
65581;SDS011;52231;40.090;18.348;2023-05-14T10:38:53;24.85;;;5.57;;
65581;SDS011;52231;40.090;18.348;2023-05-14T10:41:23;21.73;;;6.65;;
65581;SDS011;52231;40.090;18.348;2023-05-14T10:43:52;25.95;;;6.05;;
65581;SDS011;52231;40.090;18.348;2023-05-14T10:48:48;22.60;;;5.65;;
65581;SDS011;52231;40.090;18.348;2023-05-14T10:51:17;24.85;;;6.05;;
65581;SDS011;52231;40.090;18.348;2023-05-14T10:53:48;25.13;;;7.18;;
65581;SDS011;52231;40.090;18.348;2023-05-14T10:56:16;25.73;;;6.88;;
65581;SDS011;52231;40.090;18.348;2023-05-14T10:58:45;23.35;;;6.50;;
65581;SDS011;52231;40.090;18.348;2023-05-14T11:01:16;27.85;;;6.25;;
65581;SDS011;52231;40.090;18.348;2023-05-14T11:03:45;24.27;;;6.93;;
65581;SDS011;52231;40.090;18.348;2023-05-14T11:06:14;28.52;;;6.00;;
65581;SDS011;52231;40.090;18.348;2023-05-14T11:08:42;26.88;;;6.40;;
65581;SDS011;52231;40.090;18.348;2023-05-14T11:11:11;25.67;;;6.20;;
65581;SDS011;52231;40.090;18.348;2023-05-14T11:13:44;25.00;;;5.95;;
65581;SDS011;52231;40.090;18.348;2023-05-14T11:16:12;28.80;;;6.95;;
65581;SDS011;52231;40.090;18.348;2023-05-14T11:18:52;30.55;;;6.63;;
65581;SDS011;52231;40.090;18.348;2023-05-14T11:21:28;22.10;;;6.43;;
65581;SDS011;52231;40.090;18.348;2023-05-14T11:24:00;27.40;;;7.90;;
65581;SDS011;52231;40.090;18.348;2023-05-14T11:26:28;25.63;;;7.50;;
65581;SDS011;52231;40.090;18.348;2023-05-14T11:28:59;25.20;;;6.78;;
65581;SDS011;52231;40.090;18.348;2023-05-14T11:31:27;24.35;;;7.05;;
65581;SDS011;52231;40.090;18.348;2023-05-14T11:36:23;34.40;;;6.97;;
65581;SDS011;52231;40.090;18.348;2023-05-14T11:38:51;29.98;;;6.47;;
65581;SDS011;52231;40.090;18.348;2023-05-14T11:43:49;33.53;;;7.80;;
65581;SDS011;52231;40.090;18.348;2023-05-14T11:46:17;35.25;;;7.82;;
65581;SDS011;52231;40.090;18.348;2023-05-14T11:48:45;34.97;;;7.10;;
65581;SDS011;52231;40.090;18.348;2023-05-14T11:51:13;34.45;;;7.78;;
65581;SDS011;52231;40.090;18.348;2023-05-14T11:53:41;28.95;;;8.05;;
65581;SDS011;52231;40.090;18.348;2023-05-14T11:56:11;30.95;;;7.13;;
65581;SDS011;52231;40.090;18.348;2023-05-14T11:58:40;25.23;;;6.45;;
65581;SDS011;52231;40.090;18.348;2023-05-14T12:01:13;35.83;;;8.27;;
65581;SDS011;52231;40.090;18.348;2023-05-14T12:03:42;29.58;;;8.32;;
65581;SDS011;52231;40.090;18.348;2023-05-14T12:08:38;30.73;;;7.15;;
65581;SDS011;52231;40.090;18.348;2023-05-14T12:11:07;31.73;;;7.97;;
65581;SDS011;52231;40.090;18.348;2023-05-14T12:13:35;28.77;;;7.35;;
65581;SDS011;52231;40.090;18.348;2023-05-14T12:16:04;32.53;;;8.30;;
65581;SDS011;52231;40.090;18.348;2023-05-14T12:18:32;37.42;;;7.95;;
65581;SDS011;52231;40.090;18.348;2023-05-14T12:23:30;34.22;;;7.25;;
65581;SDS011;52231;40.090;18.348;2023-05-14T12:26:05;35.08;;;7.97;;
65581;SDS011;52231;40.090;18.348;2023-05-14T12:28:37;30.83;;;7.35;;
65581;SDS011;52231;40.090;18.348;2023-05-14T12:31:09;29.60;;;7.90;;
65581;SDS011;52231;40.090;18.348;2023-05-14T12:36:06;36.83;;;7.90;;
65581;SDS011;52231;40.090;18.348;2023-05-14T12:38:37;47.10;;;8.68;;
65581;SDS011;52231;40.090;18.348;2023-05-14T12:41:07;38.30;;;8.57;;
65581;SDS011;52231;40.090;18.348;2023-05-14T12:43:35;35.40;;;8.07;;
65581;SDS011;52231;40.090;18.348;2023-05-14T12:46:04;34.88;;;8.98;;
65581;SDS011;52231;40.090;18.348;2023-05-14T12:48:32;37.85;;;9.10;;
65581;SDS011;52231;40.090;18.348;2023-05-14T12:51:00;35.28;;;7.95;;
65581;SDS011;52231;40.090;18.348;2023-05-14T12:53:28;33.08;;;8.88;;
65581;SDS011;52231;40.090;18.348;2023-05-14T12:55:57;31.42;;;9.15;;
65581;SDS011;52231;40.090;18.348;2023-05-14T12:58:25;42.08;;;8.52;;
65581;SDS011;52231;40.090;18.348;2023-05-14T13:00:53;43.72;;;8.90;;
65581;SDS011;52231;40.090;18.348;2023-05-14T13:05:50;32.83;;;8.35;;
65581;SDS011;52231;40.090;18.348;2023-05-14T13:08:22;34.08;;;8.73;;
65581;SDS011;52231;40.090;18.348;2023-05-14T13:10:54;36.22;;;9.23;;
65581;SDS011;52231;40.090;18.348;2023-05-14T13:13:22;34.13;;;8.15;;
65581;SDS011;52231;40.090;18.348;2023-05-14T13:15:51;34.78;;;8.30;;
65581;SDS011;52231;40.090;18.348;2023-05-14T13:18:19;35.42;;;7.90;;
65581;SDS011;52231;40.090;18.348;2023-05-14T13:20:49;35.38;;;7.40;;
65581;SDS011;52231;40.090;18.348;2023-05-14T13:23:18;33.72;;;7.85;;
65581;SDS011;52231;40.090;18.348;2023-05-14T13:25:46;32.38;;;7.82;;
65581;SDS011;52231;40.090;18.348;2023-05-14T13:28:15;31.30;;;7.20;;
65581;SDS011;52231;40.090;18.348;2023-05-14T13:31:01;29.77;;;7.10;;
65581;SDS011;52231;40.090;18.348;2023-05-14T13:33:33;30.48;;;6.05;;
65581;SDS011;52231;40.090;18.348;2023-05-14T13:36:05;36.38;;;8.32;;
65581;SDS011;52231;40.090;18.348;2023-05-14T13:38:34;31.65;;;6.00;;
65581;SDS011;52231;40.090;18.348;2023-05-14T13:41:03;31.50;;;7.47;;
65581;SDS011;52231;40.090;18.348;2023-05-14T13:43:32;26.15;;;5.97;;
65581;SDS011;52231;40.090;18.348;2023-05-14T13:46:04;21.15;;;6.68;;
65581;SDS011;52231;40.090;18.348;2023-05-14T13:48:35;26.40;;;6.10;;
65581;SDS011;52231;40.090;18.348;2023-05-14T13:51:04;28.73;;;6.60;;
65581;SDS011;52231;40.090;18.348;2023-05-14T13:53:32;28.98;;;6.50;;
65581;SDS011;52231;40.090;18.348;2023-05-14T13:56:00;33.03;;;6.63;;
65581;SDS011;52231;40.090;18.348;2023-05-14T14:00:56;24.58;;;6.18;;
65581;SDS011;52231;40.090;18.348;2023-05-14T14:03:24;28.75;;;6.75;;
65581;SDS011;52231;40.090;18.348;2023-05-14T14:05:53;31.05;;;7.05;;
65581;SDS011;52231;40.090;18.348;2023-05-14T14:10:50;35.05;;;7.53;;
65581;SDS011;52231;40.090;18.348;2023-05-14T14:13:20;27.75;;;5.88;;
65581;SDS011;52231;40.090;18.348;2023-05-14T14:15:49;32.10;;;6.47;;
65581;SDS011;52231;40.090;18.348;2023-05-14T14:18:17;30.42;;;7.78;;
65581;SDS011;52231;40.090;18.348;2023-05-14T14:20:45;28.48;;;6.95;;
65581;SDS011;52231;40.090;18.348;2023-05-14T14:23:14;38.17;;;8.68;;
65581;SDS011;52231;40.090;18.348;2023-05-14T14:25:42;27.55;;;6.68;;
65581;SDS011;52231;40.090;18.348;2023-05-14T14:28:10;30.52;;;7.20;;
65581;SDS011;52231;40.090;18.348;2023-05-14T14:30:38;34.85;;;7.60;;
65581;SDS011;52231;40.090;18.348;2023-05-14T14:33:06;32.03;;;7.43;;
65581;SDS011;52231;40.090;18.348;2023-05-14T14:35:34;34.60;;;6.80;;
65581;SDS011;52231;40.090;18.348;2023-05-14T14:38:03;31.42;;;6.85;;
65581;SDS011;52231;40.090;18.348;2023-05-14T14:40:32;30.02;;;6.20;;
65581;SDS011;52231;40.090;18.348;2023-05-14T14:43:01;28.85;;;6.90;;
65581;SDS011;52231;40.090;18.348;2023-05-14T14:45:29;29.63;;;6.57;;
65581;SDS011;52231;40.090;18.348;2023-05-14T14:51:07;20.80;;;5.63;;
65581;SDS011;52231;40.090;18.348;2023-05-14T14:53:36;27.73;;;5.88;;
65581;SDS011;52231;40.090;18.348;2023-05-14T14:56:04;29.45;;;6.80;;
65581;SDS011;52231;40.090;18.348;2023-05-14T14:58:33;22.80;;;6.05;;
65581;SDS011;52231;40.090;18.348;2023-05-14T15:01:01;33.83;;;6.55;;
65581;SDS011;52231;40.090;18.348;2023-05-14T15:03:30;26.95;;;6.38;;
65581;SDS011;52231;40.090;18.348;2023-05-14T15:05:59;27.50;;;6.68;;
65581;SDS011;52231;40.090;18.348;2023-05-14T15:08:27;27.42;;;6.45;;
65581;SDS011;52231;40.090;18.348;2023-05-14T15:10:59;28.45;;;5.95;;
65581;SDS011;52231;40.090;18.348;2023-05-14T15:13:32;33.35;;;6.28;;
65581;SDS011;52231;40.090;18.348;2023-05-14T15:16:07;34.72;;;6.38;;
65581;SDS011;52231;40.090;18.348;2023-05-14T15:18:46;28.95;;;6.82;;
65581;SDS011;52231;40.090;18.348;2023-05-14T15:21:16;40.75;;;6.82;;
65581;SDS011;52231;40.090;18.348;2023-05-14T15:23:50;29.85;;;7.13;;
65581;SDS011;52231;40.090;18.348;2023-05-14T15:26:18;30.95;;;7.03;;
65581;SDS011;52231;40.090;18.348;2023-05-14T15:28:57;25.70;;;6.00;;
65581;SDS011;52231;40.090;18.348;2023-05-14T15:31:37;32.25;;;6.88;;
65581;SDS011;52231;40.090;18.348;2023-05-14T15:34:16;29.40;;;7.50;;
65581;SDS011;52231;40.090;18.348;2023-05-14T15:36:49;29.65;;;7.88;;
65581;SDS011;52231;40.090;18.348;2023-05-14T15:39:17;34.63;;;7.78;;
65581;SDS011;52231;40.090;18.348;2023-05-14T15:41:57;41.58;;;8.13;;
65581;SDS011;52231;40.090;18.348;2023-05-14T15:44:26;34.80;;;8.05;;